createdAt,value
2018-04-06T00:01:57.710Z,4.30
2018-04-06T00:04:25.987Z,4.13
2018-04-06T00:06:53.558Z,4.20
2018-04-06T00:09:21.152Z,4.60
2018-04-06T00:11:48.740Z,4.17
2018-04-06T00:14:16.862Z,4.10
2018-04-06T00:16:44.371Z,4.30
2018-04-06T00:19:12.659Z,4.23
2018-04-06T00:21:40.933Z,4.63
2018-04-06T00:24:08.439Z,4.20
2018-04-06T00:26:35.975Z,4.03
2018-04-06T00:29:03.632Z,4.10
2018-04-06T00:31:31.228Z,4.40
2018-04-06T00:33:59.607Z,4.27
2018-04-06T00:36:27.975Z,3.93
2018-04-06T00:38:56.302Z,4.10
2018-04-06T00:41:24.571Z,4.17
2018-04-06T00:43:52.133Z,3.77
2018-04-06T00:46:19.712Z,4.13
2018-04-06T00:48:47.239Z,4.70
2018-04-06T00:51:14.766Z,4.63
2018-04-06T00:53:48.058Z,4.60
2018-04-06T00:56:15.598Z,4.40
2018-04-06T00:58:43.107Z,3.73
2018-04-06T01:01:10.619Z,3.77
2018-04-06T01:03:38.199Z,4.10
2018-04-06T01:06:05.739Z,4.73
2018-04-06T01:08:34.048Z,4.20
2018-04-06T01:11:01.621Z,4.23
2018-04-06T01:13:29.198Z,4.27
2018-04-06T01:15:56.710Z,3.70
2018-04-06T01:18:24.235Z,4.27
2018-04-06T01:20:51.755Z,4.73
2018-04-06T01:23:19.280Z,4.10
2018-04-06T01:25:47.502Z,3.53
2018-04-06T01:28:15.019Z,4.27
2018-04-06T01:30:42.520Z,3.93
2018-04-06T01:33:10.042Z,4.70
2018-04-06T01:35:38.310Z,5.10
2018-04-06T01:38:05.838Z,4.30
2018-04-06T01:40:33.402Z,4.60
2018-04-06T01:43:00.994Z,4.53
2018-04-06T01:45:28.590Z,4.77
2018-04-06T01:47:56.118Z,4.70
2018-04-06T01:50:23.627Z,4.90
2018-04-06T01:52:51.443Z,4.40
2018-04-06T01:55:19.736Z,4.47
2018-04-06T01:57:47.257Z,5.10
2018-04-06T02:00:14.787Z,4.03
2018-04-06T02:02:42.294Z,4.70
2018-04-06T02:05:09.818Z,5.17
2018-04-06T02:07:37.324Z,4.73
2018-04-06T02:10:04.935Z,4.97
2018-04-06T02:12:33.240Z,5.37
2018-04-06T02:15:00.851Z,5.43
2018-04-06T02:17:28.411Z,5.63
2018-04-06T02:19:55.911Z,5.60
2018-04-06T02:22:23.419Z,5.40
2018-04-06T02:24:51.042Z,5.60
2018-04-06T02:27:18.632Z,6.20
2018-04-06T02:29:46.190Z,5.63
2018-04-06T02:32:13.920Z,5.87
2018-04-06T02:34:41.452Z,6.37
2018-04-06T02:37:08.976Z,5.43
2018-04-06T02:39:36.523Z,6.03
2018-04-06T02:42:04.872Z,6.00
2018-04-06T02:44:32.448Z,6.57
2018-04-06T02:47:00.024Z,6.43
2018-04-06T02:49:27.570Z,6.03
2018-04-06T02:51:55.136Z,6.33
2018-04-06T02:54:22.880Z,7.07
2018-04-06T02:56:51.156Z,6.80
2018-04-06T02:59:19.459Z,7.40
2018-04-06T03:01:46.992Z,7.57
2018-04-06T03:04:14.510Z,7.73
2018-04-06T03:06:42.055Z,7.47
2018-04-06T03:09:10.320Z,7.87
2018-04-06T03:11:38.202Z,7.90
2018-04-06T03:14:05.806Z,8.67
2018-04-06T03:16:33.363Z,7.97
2018-04-06T03:19:01.704Z,8.63
2018-04-06T03:21:29.310Z,8.60
2018-04-06T03:23:56.867Z,7.50
2018-04-06T03:26:24.391Z,7.87
2018-04-06T03:28:51.906Z,7.63
2018-04-06T03:31:19.468Z,8.10
2018-04-06T03:33:46.982Z,7.93
2018-04-06T03:36:15.261Z,8.27
2018-04-06T03:38:43.562Z,8.43
2018-04-06T03:41:11.658Z,8.00
2018-04-06T03:43:39.184Z,8.23
2018-04-06T03:46:06.886Z,8.47
2018-04-06T03:48:35.209Z,8.50
2018-04-06T03:51:03.531Z,8.90
2018-04-06T03:53:31.099Z,9.70
2018-04-06T03:55:59.782Z,9.27
2018-04-06T03:58:27.299Z,9.10
2018-04-06T04:00:55.574Z,9.03
2018-04-06T04:03:23.111Z,9.40
2018-04-06T04:05:50.718Z,9.07
2018-04-06T04:08:19.067Z,9.53
2018-04-06T04:10:46.607Z,8.73
2018-04-06T04:13:14.106Z,9.17
2018-04-06T04:15:41.628Z,8.37
2018-04-06T04:18:09.927Z,10.23
2018-04-06T04:20:38.272Z,9.70
2018-04-06T04:23:05.863Z,8.50
2018-04-06T04:25:33.450Z,9.63
2018-04-06T04:28:01.763Z,8.80
2018-04-06T04:30:29.425Z,9.13
2018-04-06T04:32:57.006Z,8.93
2018-04-06T04:35:24.519Z,8.60
2018-04-06T04:37:52.039Z,8.77
2018-04-06T04:40:20.424Z,9.47
2018-04-06T04:42:48.707Z,10.27
2018-04-06T04:45:16.999Z,9.07
2018-04-06T04:47:45.296Z,9.80
2018-04-06T04:50:13.578Z,9.23
2018-04-06T04:52:41.886Z,9.03
2018-04-06T04:55:09.399Z,9.90
2018-04-06T04:57:36.926Z,9.37
2018-04-06T05:00:04.653Z,9.43
2018-04-06T05:02:32.268Z,9.33
2018-04-06T05:04:59.933Z,9.23
2018-04-06T05:07:27.439Z,10.33
2018-04-06T05:09:55.742Z,9.63
2018-04-06T05:12:23.487Z,9.60
2018-04-06T05:14:51.072Z,9.77
2018-04-06T05:17:18.639Z,9.27
2018-04-06T05:19:46.155Z,8.83
2018-04-06T05:22:13.683Z,9.30
2018-04-06T05:24:41.249Z,9.97
2018-04-06T05:27:09.511Z,9.30
2018-04-06T05:29:37.783Z,9.40
2018-04-06T05:32:05.361Z,8.43
2018-04-06T05:34:33.735Z,9.70
2018-04-06T05:37:01.304Z,9.10
2018-04-06T05:39:29.632Z,9.33
2018-04-06T05:41:57.160Z,9.13
2018-04-06T05:44:24.692Z,8.73
2018-04-06T05:46:52.287Z,9.03
2018-04-06T05:49:19.930Z,8.87
2018-04-06T05:51:47.448Z,8.50
2018-04-06T05:54:14.971Z,8.43
2018-04-06T05:56:42.512Z,8.43
2018-04-06T05:59:10.788Z,8.83
2018-04-06T06:01:38.320Z,8.40
2018-04-06T06:04:08.804Z,8.50
2018-04-06T06:06:37.075Z,7.63
2018-04-06T06:09:04.684Z,8.93
2018-04-06T06:11:32.203Z,8.83
2018-04-06T06:14:00.873Z,8.50
2018-04-06T06:16:28.444Z,7.97
2018-04-06T06:18:55.950Z,7.97
2018-04-06T06:21:24.989Z,7.47
2018-04-06T06:23:53.263Z,6.90
2018-04-06T06:26:21.579Z,7.50
2018-04-06T06:28:49.135Z,7.03
2018-04-06T06:31:17.409Z,6.93
2018-04-06T06:33:44.936Z,6.73
2018-04-06T06:36:12.435Z,6.43
2018-04-06T06:38:39.975Z,6.43
2018-04-06T06:41:07.483Z,7.53
2018-04-06T06:43:35.026Z,6.60
2018-04-06T06:46:02.626Z,6.03
2018-04-06T06:48:30.238Z,5.97
2018-04-06T06:50:57.781Z,5.80
2018-04-06T06:53:26.071Z,5.50
2018-04-06T06:55:54.934Z,5.90
2018-04-06T06:58:22.455Z,5.97
2018-04-06T07:00:50.723Z,5.30
2018-04-06T07:03:18.247Z,4.93
2018-04-06T07:05:45.762Z,5.03
2018-04-06T07:08:13.267Z,5.27
2018-04-06T07:10:40.803Z,5.10
2018-04-06T07:13:08.315Z,4.33
2018-04-06T07:15:35.904Z,5.10
2018-04-06T07:18:03.864Z,4.80
2018-04-06T07:20:31.460Z,4.60
2018-04-06T07:22:59.094Z,4.43
2018-04-06T07:25:26.627Z,4.33
2018-04-06T07:27:54.150Z,4.30
2018-04-06T07:30:21.659Z,4.47
2018-04-06T07:32:49.173Z,4.50
2018-04-06T07:35:17.640Z,3.80
2018-04-06T07:37:45.167Z,3.67
2018-04-06T07:40:12.719Z,4.00
2018-04-06T07:42:40.223Z,3.87
2018-04-06T07:45:07.733Z,4.40
2018-04-06T07:47:36.056Z,4.13
2018-04-06T07:50:03.628Z,4.00
2018-04-06T07:52:34.157Z,3.97
2018-04-06T07:55:02.531Z,4.23
2018-04-06T07:57:30.441Z,3.47
2018-04-06T07:59:58.014Z,4.20
2018-04-06T08:02:25.523Z,3.90
2018-04-06T08:04:53.103Z,4.10
2018-04-06T08:07:20.655Z,3.60
2018-04-06T08:09:48.194Z,4.10
2018-04-06T08:12:16.155Z,3.53
2018-04-06T08:14:44.468Z,3.40
2018-04-06T08:17:12.008Z,3.53
2018-04-06T08:19:40.680Z,3.83
2018-04-06T08:22:08.203Z,3.70
2018-04-06T08:24:35.804Z,3.70
2018-04-06T08:27:03.420Z,3.60
2018-04-06T08:29:31.171Z,4.23
2018-04-06T08:31:59.309Z,3.70
2018-04-06T08:34:27.401Z,3.20
2018-04-06T08:36:54.905Z,3.03
2018-04-06T08:39:22.442Z,2.60
2018-04-06T08:41:49.992Z,3.07
2018-04-06T08:44:17.503Z,3.33
2018-04-06T08:46:45.031Z,2.80
2018-04-06T08:49:12.544Z,3.20
2018-04-06T08:51:40.078Z,2.87
2018-04-06T08:54:08.151Z,2.70
2018-04-06T08:56:36.447Z,2.77
2018-04-06T08:59:03.959Z,2.67
2018-04-06T09:01:31.573Z,2.63
2018-04-06T09:03:59.143Z,2.83
2018-04-06T09:06:26.735Z,2.70
2018-04-06T09:08:55.276Z,2.80
2018-04-06T09:11:23.786Z,2.50
2018-04-06T09:13:51.307Z,2.27
2018-04-06T09:16:18.877Z,2.70
2018-04-06T09:18:46.393Z,2.43
2018-04-06T09:21:14.058Z,2.87
2018-04-06T09:23:41.522Z,2.70
2018-04-06T09:26:09.043Z,2.33
2018-04-06T09:28:36.595Z,2.50
2018-04-06T09:31:04.948Z,2.43
2018-04-06T09:33:35.254Z,2.40
2018-04-06T09:36:02.833Z,2.60
2018-04-06T09:38:30.424Z,2.63
2018-04-06T09:40:58.730Z,2.40
2018-04-06T09:43:26.610Z,2.27
2018-04-06T09:45:54.114Z,2.13
2018-04-06T09:48:21.687Z,2.07
2018-04-06T09:50:49.995Z,1.83
2018-04-06T09:53:17.518Z,1.97
2018-04-06T09:55:45.034Z,2.17
2018-04-06T09:58:12.569Z,2.20
2018-04-06T10:00:40.078Z,2.37
2018-04-06T10:03:07.607Z,2.30
2018-04-06T10:05:35.124Z,1.90
2018-04-06T10:08:02.677Z,1.90
2018-04-06T10:10:30.233Z,1.77
2018-04-06T10:12:58.560Z,1.70
2018-04-06T10:15:26.067Z,1.63
2018-04-06T10:17:53.569Z,1.70
2018-04-06T10:20:21.857Z,1.77
2018-04-06T10:22:50.136Z,1.37
2018-04-06T10:25:18.446Z,1.80
2018-04-06T10:27:45.951Z,1.30
2018-04-06T10:30:14.239Z,1.40
2018-04-06T10:32:41.746Z,1.50
2018-04-06T10:35:09.313Z,1.50
2018-04-06T10:37:36.804Z,1.60
2018-04-06T10:40:04.367Z,1.63
2018-04-06T10:42:32.682Z,1.70
2018-04-06T10:45:00.263Z,1.17
2018-04-06T10:47:27.786Z,1.60
2018-04-06T10:49:56.075Z,1.50
2018-04-06T10:52:23.582Z,1.50
2018-04-06T10:54:51.135Z,1.60
2018-04-06T10:57:19.421Z,1.40
2018-04-06T10:59:47.694Z,1.30
2018-04-06T11:02:15.227Z,1.40
2018-04-06T11:04:42.733Z,1.30
2018-04-06T11:07:11.031Z,1.57
2018-04-06T11:09:39.307Z,1.40
2018-04-06T11:12:06.875Z,1.30
2018-04-06T11:14:34.400Z,1.53
2018-04-06T11:17:01.950Z,1.37
2018-04-06T11:19:29.509Z,1.23
2018-04-06T11:21:57.059Z,1.40
2018-04-06T11:24:24.571Z,1.23
2018-04-06T11:26:52.115Z,1.30
2018-04-06T11:29:20.470Z,1.67
2018-04-06T11:31:48.010Z,1.57
2018-04-06T11:34:15.514Z,1.60
2018-04-06T11:36:43.049Z,1.40
2018-04-06T11:39:10.559Z,1.40
2018-04-06T11:41:38.071Z,1.60
2018-04-06T11:44:06.398Z,1.53
2018-04-06T11:46:33.919Z,1.70
2018-04-06T11:49:02.324Z,1.37
2018-04-06T11:51:29.936Z,1.90
2018-04-06T11:53:58.458Z,1.53
2018-04-06T11:56:26.747Z,1.60
2018-04-06T11:58:54.282Z,1.63
2018-04-06T12:01:22.024Z,1.77
2018-04-06T12:03:49.650Z,1.97
2018-04-06T12:06:17.160Z,1.77
2018-04-06T12:08:45.451Z,1.80
2018-04-06T12:11:13.719Z,1.70
2018-04-06T12:13:41.247Z,1.90
2018-04-06T12:16:08.765Z,1.43
2018-04-06T12:18:36.328Z,1.57
2018-04-06T12:21:03.840Z,1.67
2018-04-06T12:23:31.408Z,1.70
2018-04-06T12:25:58.988Z,1.87
2018-04-06T12:28:26.498Z,1.90
2018-04-06T12:30:54.023Z,1.40
2018-04-06T12:33:21.522Z,1.70
2018-04-06T12:35:49.054Z,1.50
2018-04-06T12:38:16.563Z,1.70
2018-04-06T12:40:44.091Z,1.37
2018-04-06T12:43:11.652Z,1.50
2018-04-06T12:45:39.963Z,1.37
2018-04-06T12:48:07.490Z,1.70
2018-04-06T12:50:35.112Z,1.70
2018-04-06T12:53:02.657Z,1.40
2018-04-06T12:55:30.276Z,1.40
2018-04-06T12:57:58.602Z,1.33
2018-04-06T13:00:26.913Z,1.50
2018-04-06T13:02:55.229Z,1.50
2018-04-06T13:05:22.769Z,1.47
2018-04-06T13:07:51.062Z,1.40
2018-04-06T13:10:18.642Z,1.60
2018-04-06T13:12:46.152Z,1.70
2018-04-06T13:15:14.036Z,1.77
2018-04-06T13:17:41.538Z,1.70
2018-04-06T13:20:09.814Z,1.43
2018-04-06T13:22:37.335Z,1.50
2018-04-06T13:25:04.871Z,1.57
2018-04-06T13:27:33.205Z,1.83
2018-04-06T13:30:00.768Z,1.50
2018-04-06T13:32:28.360Z,1.63
2018-04-06T13:34:55.882Z,1.60
2018-04-06T13:37:24.158Z,1.40
2018-04-06T13:39:52.487Z,1.50
2018-04-06T13:42:20.791Z,1.80
2018-04-06T13:44:48.369Z,1.77
2018-04-06T13:47:15.923Z,1.77
2018-04-06T13:49:43.467Z,1.63
2018-04-06T13:52:11.742Z,1.80
2018-04-06T13:54:40.012Z,1.93
2018-04-06T13:57:07.570Z,2.00
2018-04-06T13:59:35.095Z,1.80
2018-04-06T14:02:02.684Z,1.87
2018-04-06T14:04:30.229Z,1.97
2018-04-06T14:06:57.830Z,1.77
2018-04-06T14:09:25.387Z,1.80
2018-04-06T14:11:53.679Z,1.73
2018-04-06T14:14:21.306Z,1.80
2018-04-06T14:57:44.034Z,1.60
2018-04-06T15:00:11.574Z,1.47
2018-04-06T15:02:39.078Z,1.70
2018-04-06T15:05:06.581Z,1.60
2018-04-06T15:07:34.173Z,1.70
2018-04-06T15:10:02.459Z,1.80
2018-04-06T15:12:30.047Z,1.87
2018-04-06T15:14:57.608Z,1.47
2018-04-06T15:17:25.167Z,1.50
2018-04-06T15:19:52.723Z,1.80
2018-04-06T15:22:20.678Z,1.50
2018-04-06T15:24:48.995Z,1.83
2018-04-06T15:27:16.507Z,1.90
2018-04-06T15:29:44.040Z,1.40
2018-04-06T15:32:11.548Z,1.57
2018-04-06T15:34:39.123Z,1.63
2018-04-06T15:37:06.664Z,1.70
2018-04-06T15:39:34.442Z,1.60
2018-04-06T15:42:02.102Z,1.90
2018-04-06T15:44:29.746Z,1.50
2018-04-06T15:46:58.138Z,1.20
2018-04-06T15:49:26.455Z,1.50
2018-04-06T15:51:53.994Z,1.73
2018-04-06T15:54:21.665Z,1.70
2018-04-06T15:56:49.189Z,1.53
2018-04-06T15:59:16.727Z,1.60
2018-04-06T16:01:44.313Z,1.40
2018-04-06T16:04:11.966Z,1.40
2018-04-06T16:06:39.501Z,1.67
2018-04-06T16:09:07.829Z,1.80
2018-04-06T16:11:35.476Z,1.57
2018-04-06T16:14:03.345Z,1.40
2018-04-06T16:16:31.862Z,1.47
2018-04-06T16:19:00.208Z,1.97
2018-04-06T16:21:27.767Z,1.60
2018-04-06T16:23:55.383Z,1.80
2018-04-06T16:26:23.086Z,1.60
2018-04-06T16:28:50.660Z,1.70
2018-04-06T16:31:18.931Z,1.40
2018-04-06T16:33:47.234Z,1.70
2018-04-06T16:36:15.507Z,1.80
2018-04-06T16:38:43.796Z,1.50
2018-04-06T16:41:12.215Z,1.70
2018-04-06T16:43:40.127Z,1.70
2018-04-06T16:46:07.633Z,1.40
2018-04-06T16:48:35.199Z,2.00
2018-04-06T16:51:02.804Z,1.80
2018-04-06T16:53:30.375Z,1.50
2018-04-06T16:55:57.926Z,1.20
2018-04-06T16:58:26.195Z,1.53
2018-04-06T17:00:53.726Z,1.50
2018-04-06T17:03:21.265Z,1.57
2018-04-06T17:05:49.550Z,1.37
2018-04-06T17:08:17.110Z,1.30
2018-04-06T17:10:45.387Z,1.33
2018-04-06T17:13:12.966Z,1.60
2018-04-06T17:15:40.464Z,1.37
2018-04-06T17:18:08.763Z,1.67
2018-04-06T17:20:36.272Z,1.60
2018-04-06T17:23:03.792Z,1.60
2018-04-06T17:25:31.386Z,1.70
2018-04-06T17:27:58.986Z,1.60
2018-04-06T17:30:26.543Z,1.67
2018-04-06T17:32:54.052Z,1.53
2018-04-06T17:35:21.587Z,1.40
2018-04-06T17:37:49.148Z,1.43
2018-04-06T17:40:16.683Z,1.57
2018-04-06T17:42:44.199Z,1.47
2018-04-06T17:45:12.470Z,1.67
2018-04-06T17:47:39.988Z,1.60
2018-04-06T17:50:07.611Z,1.60
2018-04-06T17:52:35.220Z,1.50
2018-04-06T17:55:10.352Z,1.60
2018-04-06T17:57:38.043Z,1.60
2018-04-06T18:00:05.568Z,1.70
2018-04-06T18:02:33.119Z,1.50
2018-04-06T18:05:00.708Z,1.87
2018-04-06T18:07:28.250Z,1.67
2018-04-06T18:09:56.554Z,1.60
2018-04-06T18:12:24.826Z,1.73
2018-04-06T18:14:52.356Z,1.70
2018-04-06T18:17:20.548Z,1.77
2018-04-06T18:19:48.100Z,1.90
2018-04-06T18:22:15.603Z,1.60
2018-04-06T18:24:43.130Z,1.70
2018-04-06T18:27:10.630Z,1.70
2018-04-06T18:29:38.130Z,1.93
2018-04-06T18:32:05.739Z,1.83
2018-04-06T18:34:33.270Z,1.80
2018-04-06T18:37:00.891Z,1.60
2018-04-06T18:39:28.458Z,1.83
2018-04-06T18:41:56.038Z,1.77
2018-04-06T18:44:23.562Z,1.90
2018-04-06T18:46:51.867Z,1.77
2018-04-06T18:49:19.515Z,1.80
2018-04-06T18:51:47.999Z,1.73
2018-04-06T18:54:15.571Z,1.83
2018-04-06T18:56:43.122Z,1.67
2018-04-06T18:59:10.651Z,1.83
2018-04-06T19:01:38.927Z,1.50
2018-04-06T19:04:07.226Z,1.90
2018-04-06T19:06:34.945Z,1.67
2018-04-06T19:09:02.868Z,1.70
2018-04-06T19:11:31.028Z,1.50
2018-04-06T19:13:59.338Z,1.90
2018-04-06T19:16:27.691Z,1.87
2018-04-06T19:18:57.644Z,1.97
2018-04-06T19:21:25.522Z,1.70
2018-04-06T19:23:53.070Z,2.13
2018-04-06T19:26:20.599Z,2.00
2018-04-06T19:28:48.151Z,2.07
2018-04-06T19:31:16.973Z,2.17
2018-04-06T19:33:44.562Z,1.90
2018-04-06T19:36:12.185Z,1.90
2018-04-06T19:38:39.735Z,2.00
2018-04-06T19:41:07.298Z,2.10
2018-04-06T19:43:35.021Z,2.40
2018-04-06T19:46:03.605Z,2.03
2018-04-06T19:48:31.912Z,2.13
2018-04-06T19:50:59.561Z,2.23
2018-04-06T19:53:27.885Z,2.20
2018-04-06T19:55:55.763Z,2.23
2018-04-06T19:58:23.437Z,2.50
2018-04-06T20:00:50.970Z,2.67
2018-04-06T20:03:18.536Z,2.43
2018-04-06T20:05:46.094Z,2.40
2018-04-06T20:08:13.721Z,2.50
2018-04-06T20:10:41.241Z,2.40
2018-04-06T20:13:08.809Z,2.10
2018-04-06T20:15:36.350Z,2.67
2018-04-06T20:18:04.227Z,2.37
2018-04-06T20:20:31.869Z,2.37
2018-04-06T20:23:00.204Z,2.50
2018-04-06T20:25:27.739Z,2.53
2018-04-06T20:27:55.355Z,2.83
2018-04-06T20:30:22.912Z,2.67
2018-04-06T20:32:50.502Z,2.70
2018-04-06T20:35:18.062Z,2.77
2018-04-06T20:37:45.623Z,2.60
2018-04-06T20:40:13.138Z,2.70
2018-04-06T20:42:40.664Z,2.63
2018-04-06T20:45:08.166Z,2.70
2018-04-06T20:47:35.738Z,2.40
2018-04-06T20:50:03.403Z,2.60
2018-04-06T20:52:31.011Z,2.80
2018-04-06T20:54:59.599Z,2.87
2018-04-06T20:57:27.877Z,2.67
2018-04-06T20:59:56.190Z,2.93
2018-04-06T21:02:24.463Z,2.93
2018-04-06T21:04:52.376Z,2.73
2018-04-06T21:07:19.924Z,2.70
2018-04-06T21:09:48.200Z,2.63
2018-04-06T21:12:15.722Z,2.93
2018-04-06T21:14:43.231Z,2.57
2018-04-06T21:17:10.771Z,2.67
2018-04-06T21:19:38.278Z,3.10
2018-04-06T21:22:05.846Z,2.80
2018-04-06T21:24:33.413Z,2.80
2018-04-06T21:27:01.063Z,2.73
2018-04-06T21:29:28.744Z,2.80
2018-04-06T21:31:57.075Z,2.83
2018-04-06T21:34:25.363Z,2.90
2018-04-06T21:36:53.638Z,3.00
2018-04-06T21:39:21.313Z,3.00
2018-04-06T21:41:49.609Z,3.00
2018-04-06T21:44:17.885Z,2.60
2018-04-06T21:46:46.183Z,2.90
2018-04-06T21:49:14.467Z,3.10
2018-04-06T21:51:42.767Z,2.60
2018-04-06T21:54:11.048Z,3.17
2018-04-06T21:56:39.348Z,3.10
2018-04-06T21:59:07.628Z,3.17
2018-04-06T22:01:35.918Z,3.17
2018-04-06T22:04:04.234Z,3.17
2018-04-06T22:06:31.804Z,3.13
2018-04-06T22:08:59.411Z,3.00
2018-04-06T22:11:26.930Z,3.50
2018-04-06T22:13:55.253Z,2.90
2018-04-06T22:16:22.774Z,3.10
2018-04-06T22:18:51.043Z,3.07
2018-04-06T22:21:18.638Z,3.30
2018-04-06T22:23:46.924Z,3.03
2018-04-06T22:26:15.242Z,3.00
2018-04-06T22:28:42.755Z,3.03
2018-04-06T22:31:10.287Z,3.10
2018-04-06T22:33:37.802Z,3.23
2018-04-06T22:36:05.339Z,3.30
2018-04-06T22:38:32.915Z,3.40
2018-04-06T22:41:00.453Z,3.40
2018-04-06T22:43:28.027Z,3.40
2018-04-06T22:45:55.534Z,3.37
2018-04-06T22:48:23.068Z,3.27
2018-04-06T22:50:50.631Z,3.30
2018-04-06T22:53:18.175Z,3.60
2018-04-06T22:55:46.476Z,3.03
2018-04-06T22:58:14.759Z,3.13
2018-04-06T23:00:42.300Z,3.30
2018-04-06T23:03:09.814Z,3.20
2018-04-06T23:05:38.129Z,2.80
2018-04-06T23:08:05.674Z,2.97
2018-04-06T23:10:33.995Z,3.20
2018-04-06T23:13:01.548Z,3.40
2018-04-06T23:15:29.296Z,3.43
2018-04-06T23:17:57.578Z,3.30
2018-04-06T23:20:25.859Z,3.47
2018-04-06T23:22:53.391Z,3.00
2018-04-06T23:25:20.894Z,3.47
2018-04-06T23:27:48.481Z,3.10
2018-04-06T23:30:15.998Z,3.33
2018-04-06T23:32:43.532Z,3.40
2018-04-06T23:35:11.806Z,3.47
2018-04-06T23:37:39.348Z,3.27
2018-04-06T23:40:06.868Z,3.70
2018-04-06T23:42:35.160Z,3.57
2018-04-06T23:45:03.492Z,3.50
2018-04-06T23:47:31.829Z,3.43
2018-04-06T23:50:00.193Z,3.90
2018-04-06T23:52:27.714Z,3.40
2018-04-06T23:54:55.250Z,3.50
2018-04-06T23:57:22.767Z,3.17
2018-04-06T23:59:50.331Z,3.50
